ENAN

Andøya Airport

Andenes, Norway
METAR ENAN 220020Z AUTO 21005KT 9999 NCD M10/M13 Q1026
Observed Flight Rules
Feb-22 @ 00:20 UTC (4 hours ago) Visual Flight Rules
Wind Visibility Clouds
210° at 5 knots 10,000+ meters
  • Clear skies
Temperatures Readings
Current -10°C / 14°F
Dewpoint -13°C / 9°F
Humidity 79%
Altimeter 30.3" Hg
Pressure 1026 hPa
Elevation 14
METAR ENAN 220020Z AUTO 21005KT 9999 NCD M10/M13 Q1026
Observed Flight Rules
Feb-22 @ 00:20 UTC
(4 hours ago)
VFR
Wind Visibility
210° at 5 knots 10,000+ meters
Clouds
  • Clear skies
Temperature Dewpoint
-10°C / 14°F -13°C / 9°F
Humidity Altimeter Pressure
79% 30.3" Hg 1026 hPa